Time;durP1;ratioP1;P1;durP2;ratioP2;P2;SDS_P1;SDS_P2;PMS_P1;PMS_P2;Temp;Humidity;BMP_temperature;BMP_pressure;BME280_temperature;BME280_humidity;BME280_pressure;Samples;Min_cycle;Max_cycle;Signal;HPM_P1;HPM_P2
2021/09/05 00:00:26;;;;;;;5.00;2.80;;;;;;;15.77;60.88;102216.38;5076513;28;20027;-53
2021/09/05 00:02:53;;;;;;;4.60;2.53;;;;;;;15.47;61.32;102224.78;5069264;28;20042;-55
2021/09/05 00:05:18;;;;;;;5.35;2.97;;;;;;;15.41;61.24;102221.16;5071674;28;20494;-55
2021/09/05 00:07:44;;;;;;;6.50;3.00;;;;;;;15.34;60.55;102223.22;5071599;28;20110;-55
2021/09/05 00:10:10;;;;;;;6.63;2.72;;;;;;;15.33;60.29;102224.28;5070749;28;20031;-54
2021/09/05 00:12:36;;;;;;;5.22;2.55;;;;;;;15.36;59.84;102229.19;5072944;28;20070;-54
2021/09/05 00:15:04;;;;;;;5.43;3.05;;;;;;;15.20;60.55;102237.25;5073724;28;20047;-55
2021/09/05 00:17:30;;;;;;;4.97;2.80;;;;;;;15.14;60.33;102225.56;5069717;28;20025;-55
2021/09/05 00:19:55;;;;;;;5.75;2.72;;;;;;;15.02;60.15;102224.78;5069522;28;20036;-54
2021/09/05 00:22:21;;;;;;;4.78;2.90;;;;;;;14.98;60.20;102231.75;5074026;28;20448;-56
2021/09/05 00:24:46;;;;;;;4.03;2.42;;;;;;;14.93;60.01;102234.34;5072527;28;20032;-55
2021/09/05 00:27:12;;;;;;;5.38;2.80;;;;;;;14.95;59.74;102237.63;5073063;28;20036;-56
2021/09/05 00:29:37;;;;;;;7.00;2.72;;;;;;;14.87;60.07;102241.50;5071611;28;20074;-52
2021/09/05 00:32:03;;;;;;;3.78;2.35;;;;;;;14.78;59.92;102241.09;5072415;28;20461;-54
2021/09/05 00:34:29;;;;;;;5.70;2.85;;;;;;;14.66;60.48;102245.69;5071231;28;20042;-55
2021/09/05 00:36:54;;;;;;;5.22;2.50;;;;;;;14.59;60.51;102245.00;5071195;28;20035;-55
2021/09/05 00:39:20;;;;;;;6.60;2.70;;;;;;;14.62;60.36;102241.84;5072864;28;20037;-55
2021/09/05 00:41:47;;;;;;;4.18;2.60;;;;;;;14.63;60.30;102243.47;5074533;28;20027;-52
2021/09/05 00:44:13;;;;;;;6.03;3.03;;;;;;;14.40;60.93;102235.41;5076900;28;20445;-55
2021/09/05 00:46:39;;;;;;;7.65;2.50;;;;;;;14.47;60.66;102244.22;5073897;28;20082;-52
2021/09/05 00:49:07;;;;;;;3.75;2.45;;;;;;;14.47;60.61;102246.91;5076625;28;20185;-52
2021/09/05 00:51:38;;;;;;;4.68;2.58;;;;;;;14.46;60.21;102246.09;5072189;28;20020;-54
2021/09/05 00:54:06;;;;;;;5.07;2.85;;;;;;;14.48;60.23;102248.53;5073625;28;20398;-55
2021/09/05 00:56:33;;;;;;;6.00;2.50;;;;;;;14.45;59.96;102255.22;5070246;28;20431;-52
2021/09/05 00:59:07;;;;;;;6.50;3.28;;;;;;;14.45;59.93;102254.41;5075608;28;20039;-54
2021/09/05 01:01:35;;;;;;;6.32;2.70;;;;;;;14.41;60.16;102261.31;5073678;28;20828;-52
2021/09/05 01:04:01;;;;;;;5.80;2.40;;;;;;;14.34;60.40;102268.69;5070684;28;20032;-52
2021/09/05 01:06:27;;;;;;;5.60;2.45;;;;;;;14.28;60.63;102272.34;5074626;28;20023;-53
2021/09/05 01:08:53;;;;;;;6.07;3.03;;;;;;;14.28;60.40;102275.03;5075281;28;20024;-52
2021/09/05 01:11:19;;;;;;;5.60;2.80;;;;;;;14.32;60.24;102278.91;5074194;28;20059;-51
2021/09/05 01:13:45;;;;;;;4.10;2.65;;;;;;;14.29;60.26;102282.06;5069979;28;20074;-52
2021/09/05 01:16:26;;;;;;;8.18;2.53;;;;;;;14.23;59.76;102275.75;5056551;28;20111;-51
2021/09/05 01:18:52;;;;;;;6.68;2.55;;;;;;;14.19;60.37;102280.78;5070695;28;20024;-53
2021/09/05 01:21:18;;;;;;;6.90;2.78;;;;;;;14.21;60.37;102284.06;5072112;28;20024;-52
2021/09/05 01:23:43;;;;;;;6.00;2.88;;;;;;;14.14;60.42;102288.75;5071853;28;20405;-54
2021/09/05 01:26:11;;;;;;;5.47;2.53;;;;;;;14.10;60.76;102292.97;5072369;28;20106;-52
2021/09/05 01:28:37;;;;;;;5.68;2.50;;;;;;;14.14;60.64;102294.13;5072104;28;20109;-52
2021/09/05 01:31:03;;;;;;;6.20;2.70;;;;;;;14.15;60.62;102293.06;5073037;28;20115;-52
2021/09/05 01:33:28;;;;;;;4.50;2.53;;;;;;;14.14;60.69;102291.44;5071341;28;20044;-56
2021/09/05 01:35:54;;;;;;;4.82;2.25;;;;;;;13.95;61.42;102291.78;5068594;28;20021;-52
2021/09/05 01:38:19;;;;;;;5.38;2.28;;;;;;;13.87;61.90;102295.66;5072807;28;20035;-54
2021/09/05 01:40:45;;;;;;;6.47;3.00;;;;;;;13.88;61.65;102291.91;5073085;28;20031;-54
2021/09/05 01:43:10;;;;;;;6.47;2.83;;;;;;;13.83;61.92;102298.00;5072747;28;20020;-54
2021/09/05 01:45:36;;;;;;;4.22;2.40;;;;;;;13.84;62.02;102302.31;5070909;28;20039;-53
2021/09/05 01:48:01;;;;;;;8.20;2.90;;;;;;;13.81;62.36;102299.25;5044391;28;20617;-53
2021/09/05 01:50:27;;;;;;;6.95;2.70;;;;;;;13.76;62.27;102309.91;5070915;28;20035;-52
2021/09/05 01:52:52;;;;;;;5.90;2.35;;;;;;;13.67;62.68;102305.91;5071665;28;20054;-54
2021/09/05 01:55:18;;;;;;;5.55;2.78;;;;;;;13.72;62.45;102308.72;5070666;28;20597;-53
2021/09/05 01:57:43;;;;;;;6.15;3.40;;;;;;;13.68;62.67;102308.38;5069931;28;20028;-54
2021/09/05 02:00:09;;;;;;;4.65;2.50;;;;;;;13.46;63.16;102309.94;5073084;28;20470;-52
2021/09/05 02:02:35;;;;;;;8.35;3.08;;;;;;;13.56;63.07;102318.28;5069874;28;20032;-54
2021/09/05 02:05:00;;;;;;;6.38;2.92;;;;;;;13.52;62.86;102317.94;5072396;28;20039;-53
2021/09/05 02:07:26;;;;;;;8.10;3.00;;;;;;;13.35;63.85;102316.13;5071596;28;20024;-52
2021/09/05 02:09:51;;;;;;;4.28;2.53;;;;;;;13.41;63.38;102310.63;5073543;28;20040;-53
2021/09/05 02:12:17;;;;;;;6.50;2.90;;;;;;;13.44;63.47;102317.41;5073012;28;20062;-53
2021/09/05 02:14:42;;;;;;;5.80;2.40;;;;;;;13.26;64.65;102315.59;5071828;28;20028;-54
2021/09/05 02:17:08;;;;;;;5.07;3.30;;;;;;;13.33;63.96;102313.66;5072337;28;20028;-55
2021/09/05 02:19:33;;;;;;;3.58;2.60;;;;;;;13.29;63.99;102315.16;5069666;28;20036;-52
2021/09/05 02:22:00;;;;;;;9.77;3.30;;;;;;;13.20;64.52;102316.50;5072104;28;20020;-55
2021/09/05 02:24:26;;;;;;;3.67;2.38;;;;;;;13.14;64.77;102320.91;5069068;28;20035;-55
2021/09/05 02:26:51;;;;;;;6.72;3.25;;;;;;;13.11;64.81;102323.25;5071433;28;20020;-52
2021/09/05 02:29:17;;;;;;;5.85;2.95;;;;;;;13.02;65.46;102320.03;5071001;28;20027;-53
2021/09/05 02:31:42;;;;;;;5.78;3.28;;;;;;;12.99;65.65;102320.47;5068725;28;20027;-53
2021/09/05 02:34:08;;;;;;;8.13;3.15;;;;;;;12.99;65.71;102324.00;5071088;28;20078;-54
2021/09/05 02:36:33;;;;;;;9.20;3.45;;;;;;;12.93;66.18;102322.22;5070759;28;20039;-54
2021/09/05 02:38:59;;;;;;;9.43;3.60;;;;;;;12.93;65.89;102327.59;5057435;28;20401;-53
2021/09/05 02:41:24;;;;;;;6.30;3.00;;;;;;;12.82;66.48;102330.19;5072370;28;20051;-56
2021/09/05 02:43:50;;;;;;;9.07;3.20;;;;;;;12.79;66.60;102328.78;5071819;28;20040;-55
2021/09/05 02:46:16;;;;;;;6.45;2.90;;;;;;;12.75;66.74;102324.06;5073614;28;20043;-55
2021/09/05 02:48:41;;;;;;;5.63;2.78;;;;;;;12.66;67.45;102323.53;5071635;28;20540;-55
2021/09/05 02:51:06;;;;;;;8.90;3.00;;;;;;;12.69;67.33;102328.47;5076334;28;20154;-56
2021/09/05 02:53:32;;;;;;;6.55;2.97;;;;;;;12.66;67.50;102331.59;5072661;28;20040;-51
2021/09/05 02:55:57;;;;;;;5.10;2.70;;;;;;;12.67;67.32;102333.25;5077405;28;20107;-52
2021/09/05 02:58:23;;;;;;;7.93;3.35;;;;;;;12.62;67.68;102343.88;5063707;28;20489;-53
2021/09/05 03:00:49;;;;;;;6.18;3.05;;;;;;;12.66;67.55;102339.69;5074172;28;20121;-52
2021/09/05 03:03:14;;;;;;;6.15;3.25;;;;;;;12.69;67.53;102340.03;5076721;28;20040;-54
2021/09/05 03:05:40;;;;;;;6.45;3.17;;;;;;;12.61;68.15;102340.34;5041946;28;20020;-52
2021/09/05 03:08:05;;;;;;;6.10;2.90;;;;;;;12.62;68.13;102342.00;5074653;28;20127;-55
2021/09/05 03:10:31;;;;;;;7.22;3.10;;;;;;;12.71;67.87;102340.66;5074262;28;20032;-54
2021/09/05 03:12:56;;;;;;;6.80;2.60;;;;;;;12.78;67.49;102343.28;5074954;28;20043;-53
2021/09/05 03:15:22;;;;;;;9.77;2.97;;;;;;;12.83;67.68;102347.97;5075415;28;20085;-56
2021/09/05 03:17:47;;;;;;;9.00;3.13;;;;;;;12.84;67.79;102347.75;5075444;28;20024;-52
2021/09/05 03:20:13;;;;;;;5.40;3.45;;;;;;;12.87;67.49;102350.00;5073626;28;20707;-56
2021/09/05 03:22:38;;;;;;;6.57;3.40;;;;;;;12.87;67.51;102354.56;5071548;28;20020;-53
2021/09/05 03:25:04;;;;;;;6.05;2.88;;;;;;;12.91;67.53;102348.50;5076371;28;20028;-53
2021/09/05 03:27:30;;;;;;;7.38;3.13;;;;;;;12.90;67.72;102344.16;5074699;28;20032;-52
2021/09/05 03:29:55;;;;;;;6.05;3.13;;;;;;;12.96;67.54;102345.97;5074263;28;20020;-55
2021/09/05 03:32:21;;;;;;;5.50;3.35;;;;;;;12.86;68.28;102351.03;5075564;28;20462;-56
2021/09/05 03:34:46;;;;;;;6.82;2.95;;;;;;;12.97;67.45;102354.88;5073108;28;20374;-56
2021/09/05 03:37:12;;;;;;;6.75;3.17;;;;;;;12.94;67.96;102356.13;5076053;28;20486;-53
2021/09/05 03:39:38;;;;;;;6.63;3.38;;;;;;;12.94;67.81;102356.13;5072840;28;20031;-53
2021/09/05 03:42:04;;;;;;;8.98;3.38;;;;;;;12.92;67.96;102352.81;5074929;28;20028;-54
2021/09/05 03:44:30;;;;;;;7.07;3.00;;;;;;;12.88;68.13;102354.31;5059999;28;20032;-55
2021/09/05 03:46:55;;;;;;;7.18;3.38;;;;;;;12.87;68.23;102357.25;5071816;28;20036;-56
2021/09/05 03:49:21;;;;;;;5.55;2.75;;;;;;;12.86;68.41;102367.19;5074527;28;20020;-57
2021/09/05 03:51:46;;;;;;;7.40;3.20;;;;;;;12.80;68.49;102373.47;5071907;28;20087;-54
2021/09/05 03:54:12;;;;;;;8.55;2.83;;;;;;;12.80;68.25;102376.16;5074554;28;20479;-52
2021/09/05 03:56:38;;;;;;;5.78;2.90;;;;;;;12.74;68.56;102379.72;5073223;28;20016;-53
2021/09/05 03:59:03;;;;;;;9.38;3.47;;;;;;;12.67;68.71;102379.78;5073241;28;20032;-52
2021/09/05 04:01:32;;;;;;;6.93;2.70;;;;;;;12.56;69.32;102374.31;5074129;28;20499;-55
2021/09/05 04:03:58;;;;;;;4.82;3.13;;;;;;;12.50;69.36;102381.41;5073518;28;20360;-52
2021/09/05 04:06:23;;;;;;;8.10;3.13;;;;;;;12.54;69.20;102379.09;5071344;28;20059;-55
2021/09/05 04:08:51;;;;;;;5.10;3.15;;;;;;;12.47;69.19;102376.47;5073662;28;20126;-56
2021/09/05 04:11:17;;;;;;;6.82;3.42;;;;;;;12.38;69.79;102383.16;5073634;28;20453;-51
2021/09/05 04:13:42;;;;;;;5.68;2.90;;;;;;;12.33;69.87;102385.69;5071004;28;20108;-55
2021/09/05 04:16:08;;;;;;;7.45;2.13;;;;;;;12.32;69.96;102384.03;5075606;28;20031;-56
2021/09/05 04:18:33;;;;;;;6.68;2.92;;;;;;;12.32;70.20;102395.63;5058082;28;20059;-54
2021/09/05 04:20:59;;;;;;;6.30;3.35;;;;;;;12.30;70.10;102392.34;5073747;28;20104;-52
2021/09/05 04:23:25;;;;;;;9.27;2.88;;;;;;;12.30;70.02;102400.41;5071958;28;20112;-53
2021/09/05 04:25:50;;;;;;;8.68;3.55;;;;;;;12.30;70.16;102397.72;5073560;28;20485;-54
2021/09/05 04:28:16;;;;;;;7.25;3.30;;;;;;;12.33;70.02;102391.88;5072510;28;20023;-54
2021/09/05 04:30:42;;;;;;;6.40;3.08;;;;;;;12.32;70.00;102392.94;5073474;28;20035;-56
2021/09/05 04:33:07;;;;;;;5.15;3.20;;;;;;;12.37;70.04;102395.78;5060084;28;20131;-54
2021/09/05 04:35:33;;;;;;;6.07;2.63;;;;;;;12.42;69.96;102400.50;5072251;28;20349;-52
2021/09/05 04:37:58;;;;;;;5.30;2.60;;;;;;;12.34;70.57;102400.78;5072162;28;20500;-52
2021/09/05 04:40:24;;;;;;;6.45;2.97;;;;;;;12.38;70.42;102400.09;5074963;28;20032;-55
2021/09/05 04:42:49;;;;;;;4.32;2.92;;;;;;;12.48;69.86;102396.13;5072483;28;20039;-55
2021/09/05 04:45:15;;;;;;;7.63;2.97;;;;;;;12.50;69.90;102402.09;5072337;28;20325;-55
2021/09/05 04:47:40;;;;;;;4.47;2.88;;;;;;;12.53;69.86;102402.47;5072425;28;20024;-53
2021/09/05 04:50:06;;;;;;;4.95;3.05;;;;;;;12.50;70.56;102407.47;5073547;28;20529;-53
2021/09/05 04:52:31;;;;;;;9.07;3.20;;;;;;;12.57;70.04;102413.63;5073598;28;20116;-52
2021/09/05 04:54:57;;;;;;;5.00;2.70;;;;;;;12.59;69.85;102414.22;5071627;28;20104;-55
2021/09/05 04:57:22;;;;;;;4.40;2.90;;;;;;;12.68;69.35;102410.19;5072586;28;20386;-54
2021/09/05 04:59:48;;;;;;;6.18;2.88;;;;;;;12.70;69.47;102414.31;5072631;28;20057;-52
2021/09/05 05:02:14;;;;;;;4.95;2.92;;;;;;;12.75;69.40;102428.94;5072320;28;20390;-54
2021/09/05 05:04:39;;;;;;;4.57;2.83;;;;;;;12.80;69.12;102427.25;5070939;28;20115;-53
2021/09/05 05:07:05;;;;;;;4.50;2.30;;;;;;;12.82;69.34;102427.84;5072582;28;20271;-52
2021/09/05 05:09:30;;;;;;;5.47;3.25;;;;;;;12.84;69.32;102431.16;5072273;28;20467;-53
2021/09/05 05:11:56;;;;;;;4.70;2.78;;;;;;;12.85;69.16;102427.41;5072689;28;20024;-52
2021/09/05 05:14:21;;;;;;;5.65;3.00;;;;;;;12.86;69.04;102429.06;5071414;28;20031;-53
2021/09/05 05:16:47;;;;;;;5.80;3.13;;;;;;;12.96;69.01;102432.06;5072536;28;20024;-53
2021/09/05 05:19:12;;;;;;;6.22;2.50;;;;;;;13.17;68.38;102435.34;5072600;28;20024;-53
2021/09/05 05:21:38;;;;;;;5.07;2.75;;;;;;;13.29;67.96;102436.31;5073367;28;20020;-53
2021/09/05 05:24:03;;;;;;;6.35;2.97;;;;;;;13.45;67.40;102440.22;5072378;28;20509;-54
2021/09/05 05:26:29;;;;;;;7.70;3.25;;;;;;;13.46;67.49;102440.00;5071561;28;20406;-54
2021/09/05 05:28:55;;;;;;;8.70;2.83;;;;;;;13.46;67.33;102440.00;5071202;28;20040;-54
2021/09/05 05:31:21;;;;;;;4.72;2.90;;;;;;;13.42;67.39;102438.00;5072274;28;20035;-55
2021/09/05 05:33:47;;;;;;;4.32;2.35;;;;;;;13.41;67.28;102439.84;5072286;28;20033;-55
2021/09/05 05:36:12;;;;;;;7.35;2.70;;;;;;;13.48;67.36;102450.56;5074030;28;20073;-53
2021/09/05 05:38:39;;;;;;;5.53;2.50;;;;;;;13.46;67.38;102448.06;5070586;28;20111;-53
2021/09/05 05:41:04;;;;;;;3.80;2.47;;;;;;;13.52;67.03;102449.06;5072837;28;20085;-55
2021/09/05 05:43:32;;;;;;;5.10;2.75;;;;;;;13.45;67.42;102449.13;5072794;28;20075;-54
2021/09/05 05:45:57;;;;;;;3.88;2.50;;;;;;;13.52;66.97;102449.88;5071278;28;20027;-53
2021/09/05 05:48:23;;;;;;;4.03;2.42;;;;;;;13.57;66.51;102450.03;5072299;28;20171;-53
2021/09/05 05:50:49;;;;;;;3.85;2.58;;;;;;;13.63;66.41;102453.66;5073900;28;20505;-53
2021/09/05 05:53:16;;;;;;;3.63;2.28;;;;;;;13.66;65.99;102457.81;5055857;28;20040;-52
2021/09/05 05:55:41;;;;;;;7.18;2.90;;;;;;;13.72;66.17;102459.59;5072053;28;20215;-54
2021/09/05 05:58:07;;;;;;;5.45;2.90;;;;;;;13.77;65.81;102460.53;5070323;28;20078;-54
2021/09/05 06:00:35;;;;;;;7.00;2.80;;;;;;;13.81;65.40;102466.28;5071135;28;20073;-53
2021/09/05 06:03:01;;;;;;;4.40;2.80;;;;;;;13.87;65.34;102463.53;5070790;28;20035;-54
2021/09/05 06:05:26;;;;;;;4.70;2.42;;;;;;;13.96;65.16;102469.41;5070261;28;20024;-53
2021/09/05 06:07:52;;;;;;;5.38;2.70;;;;;;;14.02;64.90;102462.28;5073022;28;20361;-53
2021/09/05 06:10:17;;;;;;;4.43;2.67;;;;;;;14.03;65.26;102472.03;5072109;28;20366;-53
2021/09/05 06:12:43;;;;;;;6.28;2.85;;;;;;;14.13;64.88;102473.09;5070269;28;20040;-53
2021/09/05 06:15:09;;;;;;;5.05;2.53;;;;;;;14.25;64.71;102475.81;5074522;28;20059;-55
2021/09/05 06:17:34;;;;;;;4.68;2.40;;;;;;;14.26;64.66;102479.34;5070855;28;20097;-53
2021/09/05 06:19:59;;;;;;;8.75;2.85;;;;;;;14.28;64.39;102477.25;5070781;28;20029;-53
2021/09/05 06:22:25;;;;;;;4.40;2.83;;;;;;;14.33;64.25;102480.06;5073211;28;20020;-54
2021/09/05 06:24:51;;;;;;;4.00;2.65;;;;;;;14.40;64.00;102483.50;5075785;28;20059;-53
2021/09/05 06:27:16;;;;;;;4.93;2.83;;;;;;;14.43;63.53;102483.03;5075858;28;20024;-52
2021/09/05 06:29:42;;;;;;;4.85;2.88;;;;;;;14.43;63.62;102483.88;5075571;28;20024;-53
2021/09/05 06:32:08;;;;;;;4.30;2.25;;;;;;;14.49;63.49;102482.13;5075629;28;20074;-53
2021/09/05 06:34:34;;;;;;;5.78;2.55;;;;;;;14.54;63.36;102486.81;5073409;28;20052;-53
2021/09/05 06:37:01;;;;;;;5.22;2.70;;;;;;;14.60;63.20;102494.00;5076486;28;20501;-53
2021/09/05 06:39:27;;;;;;;3.97;2.83;;;;;;;14.73;63.25;102497.31;5074894;28;20024;-54
2021/09/05 06:41:52;;;;;;;8.77;2.80;;;;;;;14.79;62.33;102499.06;5073563;28;20119;-55
2021/09/05 06:44:18;;;;;;;5.15;2.30;;;;;;;15.12;62.33;102497.66;5076062;28;20413;-54
2021/09/05 06:46:43;;;;;;;5.18;2.63;;;;;;;15.40;61.26;102500.44;5073897;28;20085;-54
2021/09/05 06:49:08;;;;;;;5.95;2.53;;;;;;;15.52;60.83;102497.72;5076851;28;20031;-54
2021/09/05 06:51:34;;;;;;;4.78;2.55;;;;;;;15.52;60.30;102503.13;5074005;28;20517;-54
2021/09/05 06:53:59;;;;;;;7.30;2.20;;;;;;;15.56;60.21;102508.84;5073958;28;20112;-54
2021/09/05 06:56:25;;;;;;;5.47;2.53;;;;;;;15.55;60.06;102499.09;5074922;28;20024;-55
2021/09/05 06:58:50;;;;;;;8.65;3.22;;;;;;;15.70;59.77;102502.16;5074515;28;20043;-54
2021/09/05 07:01:16;;;;;;;6.55;3.00;;;;;;;15.85;59.49;102490.84;5073587;28;20267;-54
2021/09/05 07:03:41;;;;;;;5.82;2.70;;;;;;;15.92;59.29;102497.72;5074201;28;20032;-55
2021/09/05 07:06:07;;;;;;;5.30;2.65;;;;;;;16.14;58.84;102499.75;5076142;28;20024;-55
2021/09/05 07:08:32;;;;;;;5.60;2.95;;;;;;;16.31;58.70;102497.91;5074630;28;20067;-54
2021/09/05 07:10:58;;;;;;;6.28;3.28;;;;;;;16.61;58.00;102506.53;5074840;28;20078;-55
2021/09/05 07:13:23;;;;;;;6.68;2.80;;;;;;;16.83;57.26;102506.63;5074536;28;20021;-55
2021/09/05 07:15:49;;;;;;;5.80;2.83;;;;;;;16.95;57.22;102500.31;5070678;28;20035;-54
2021/09/05 07:18:15;;;;;;;4.80;3.00;;;;;;;17.04;57.52;102499.63;5074884;28;20103;-54
2021/09/05 07:20:40;;;;;;;6.07;2.72;;;;;;;17.26;56.67;102501.59;5077795;28;20394;-54
2021/09/05 07:23:06;;;;;;;3.65;2.42;;;;;;;17.44;55.85;102504.00;5057577;28;20035;-54
2021/09/05 07:25:32;;;;;;;3.90;2.60;;;;;;;17.49;55.72;102510.28;5075123;28;20344;-53
2021/09/05 07:27:57;;;;;;;6.30;2.72;;;;;;;17.44;55.57;102504.81;5074685;28;20028;-55
2021/09/05 07:30:23;;;;;;;6.75;2.88;;;;;;;17.66;54.87;102507.53;5076053;28;20024;-55
2021/09/05 07:32:49;;;;;;;5.75;2.85;;;;;;;17.78;54.29;102512.84;5072124;28;20032;-53
2021/09/05 07:35:14;;;;;;;11.23;3.28;;;;;;;17.74;54.13;102517.13;5074234;28;20066;-53
2021/09/05 07:37:45;;;;;;;6.38;3.20;;;;;;;17.72;53.45;102509.25;5074214;28;20030;-55
2021/09/05 07:40:11;;;;;;;3.63;2.17;;;;;;;17.76;53.53;102520.41;5078215;28;20456;-55
2021/09/05 07:42:37;;;;;;;7.60;2.60;;;;;;;17.83;54.26;102517.50;5074619;28;20028;-55
2021/09/05 07:45:03;;;;;;;3.85;2.60;;;;;;;17.81;53.97;102523.19;5076318;28;20108;-53
2021/09/05 07:47:28;;;;;;;4.63;2.40;;;;;;;17.88;53.78;102531.13;5075163;28;20556;-53
2021/09/05 07:49:53;;;;;;;6.30;2.70;;;;;;;18.09;53.56;102528.38;5075224;28;20190;-53
2021/09/05 07:52:19;;;;;;;5.57;2.38;;;;;;;18.25;53.25;102523.94;5075760;28;20483;-55
2021/09/05 07:54:44;;;;;;;4.47;2.83;;;;;;;18.49;53.10;102529.03;5072509;28;20032;-55
2021/09/05 07:57:10;;;;;;;3.70;2.42;;;;;;;18.55;52.24;102531.53;5072535;28;20099;-54
2021/09/05 07:59:36;;;;;;;7.90;2.47;;;;;;;18.45;52.06;102530.63;5059324;28;20397;-52
2021/09/05 08:02:01;;;;;;;5.28;2.78;;;;;;;18.41;52.33;102536.56;5055847;28;20491;-54
2021/09/05 08:04:27;;;;;;;5.68;2.80;;;;;;;18.54;51.74;102537.22;5069799;28;20514;-55
2021/09/05 08:06:52;;;;;;;5.90;3.03;;;;;;;18.57;51.28;102536.72;5072401;28;20031;-53
2021/09/05 08:09:18;;;;;;;4.30;2.58;;;;;;;18.69;51.69;102538.22;5072520;28;20123;-56
2021/09/05 08:11:43;;;;;;;5.32;2.63;;;;;;;18.82;51.20;102541.56;5072996;28;20032;-56
2021/09/05 08:14:09;;;;;;;4.47;2.58;;;;;;;18.82;50.32;102547.78;5072504;28;20024;-56
2021/09/05 08:16:37;;;;;;;3.90;2.60;;;;;;;18.96;50.46;102542.75;5072904;28;20545;-54
2021/09/05 08:19:03;;;;;;;8.27;3.28;;;;;;;18.92;50.61;102542.47;5070449;28;20105;-55
2021/09/05 08:21:29;;;;;;;5.22;2.88;;;;;;;19.10;49.90;102545.84;5070007;28;20105;-55
2021/09/05 08:23:55;;;;;;;4.40;2.75;;;;;;;19.27;49.89;102549.22;5071665;28;20020;-56
2021/09/05 08:26:23;;;;;;;4.80;2.55;;;;;;;19.53;50.15;102550.16;5069085;28;20382;-56
2021/09/05 08:28:49;;;;;;;4.55;2.60;;;;;;;19.65;48.80;102553.53;5071246;28;20031;-55
2021/09/05 08:31:14;;;;;;;4.35;2.58;;;;;;;19.65;49.51;102558.13;5071784;28;20024;-56
2021/09/05 08:33:40;;;;;;;6.47;3.15;;;;;;;19.84;49.49;102557.41;5074349;28;20077;-56
2021/09/05 08:36:05;;;;;;;6.07;2.80;;;;;;;19.69;49.03;102556.53;5071900;28;20553;-56
2021/09/05 08:38:32;;;;;;;4.63;2.75;;;;;;;19.88;48.76;102550.34;5073049;28;20044;-55
2021/09/05 08:40:58;;;;;;;6.35;2.88;;;;;;;19.96;47.58;102557.19;5073953;28;20394;-56
2021/09/05 08:43:23;;;;;;;8.45;2.97;;;;;;;20.00;47.84;102557.47;5072764;28;20034;-55
2021/09/05 08:45:49;;;;;;;4.78;3.08;;;;;;;20.03;47.46;102557.72;5072143;28;20422;-55
2021/09/05 08:48:19;;;;;;;6.18;3.00;;;;;;;20.21;47.56;102559.13;5074991;28;20024;-54
2021/09/05 08:50:47;;;;;;;7.40;2.75;;;;;;;20.22;47.74;102556.16;5069903;28;20089;-55
2021/09/05 08:53:13;;;;;;;4.53;2.70;;;;;;;20.27;47.75;102557.22;5074400;28;20020;-55
2021/09/05 08:55:38;;;;;;;5.47;2.88;;;;;;;20.32;47.25;102568.16;5068340;28;20204;-56
2021/09/05 08:58:04;;;;;;;5.25;2.60;;;;;;;20.34;47.90;102561.34;5074083;28;20036;-56
2021/09/05 09:00:32;;;;;;;4.32;2.42;;;;;;;20.44;47.03;102561.38;5066518;28;20022;-53
2021/09/05 09:02:59;;;;;;;4.70;2.65;;;;;;;20.46;47.53;102556.47;5077275;28;20073;-55
2021/09/05 09:05:35;;;;;;;4.53;2.97;;;;;;;20.68;46.64;102553.53;5066496;28;20039;-56
2021/09/05 09:08:09;;;;;;;6.15;2.70;;;;;;;20.84;46.52;102548.06;5072078;28;20607;-55
2021/09/05 09:10:55;;;;;;;5.30;2.70;;;;;;;21.05;46.91;102553.22;5073465;28;20035;-53
2021/09/05 09:13:35;;;;;;;4.05;2.85;;;;;;;21.04;46.72;102556.22;5069812;28;20167;-56
2021/09/05 09:16:12;;;;;;;7.15;3.10;;;;;;;20.94;45.82;102556.22;5074016;28;20147;-55
2021/09/05 09:18:42;;;;;;;4.00;2.55;;;;;;;21.10;46.18;102557.84;5059326;28;20032;-56
2021/09/05 09:21:10;;;;;;;5.20;2.80;;;;;;;21.05;46.78;102558.66;5070182;28;20016;-54
2021/09/05 09:23:37;;;;;;;4.05;2.88;;;;;;;21.42;46.12;102552.91;5069451;28;20036;-53
2021/09/05 09:26:07;;;;;;;8.55;3.38;;;;;;;21.70;45.64;102550.59;5068412;28;20498;-56
2021/09/05 09:28:37;;;;;;;4.45;2.72;;;;;;;21.62;44.25;102546.53;5073264;28;20032;-56
2021/09/05 09:31:26;;;;;;;9.38;3.70;;;;;;;21.83;45.15;102543.72;5073163;28;20047;-55
2021/09/05 09:33:54;;;;;;;11.00;3.38;;;;;;;21.86;44.55;102541.25;5058263;28;20546;-56
2021/09/05 09:36:21;;;;;;;5.90;2.95;;;;;;;21.98;44.18;102543.66;5073694;28;20036;-55
2021/09/05 09:39:05;;;;;;;7.95;3.25;;;;;;;21.94;44.17;102543.41;5070283;28;20029;-56
2021/09/05 09:41:37;;;;;;;6.50;3.60;;;;;;;21.71;44.18;102539.41;5074836;28;20150;-56
2021/09/05 09:44:05;;;;;;;6.53;2.88;;;;;;;21.80;43.54;102544.28;5070203;28;20024;-55
2021/09/05 09:46:33;;;;;;;8.95;3.70;;;;;;;21.85;44.09;102544.25;5074803;28;20653;-55
2021/09/05 09:49:02;;;;;;;4.63;3.00;;;;;;;21.84;44.32;102546.16;5074369;28;20024;-56
2021/09/05 09:51:28;;;;;;;24.17;14.15;;;;;;;22.07;44.49;102541.16;5072795;28;20032;-56
2021/09/05 09:53:55;;;;;;;10.75;6.75;;;;;;;22.14;44.12;102537.03;5061961;28;20035;-56
2021/09/05 09:56:22;;;;;;;6.05;3.50;;;;;;;22.13;43.70;102532.69;5055237;28;20038;-56
2021/09/05 09:58:50;;;;;;;5.72;3.13;;;;;;;22.32;43.31;102538.28;5078384;28;20098;-57
2021/09/05 10:01:19;;;;;;;7.10;3.20;;;;;;;22.49;44.02;102538.72;5079740;28;20069;-56
2021/09/05 10:03:47;;;;;;;4.75;3.17;;;;;;;22.42;42.73;102538.19;5080329;28;20036;-56
2021/09/05 10:06:14;;;;;;;8.32;3.70;;;;;;;22.22;43.54;102543.81;5079747;28;20031;-56
2021/09/05 10:08:42;;;;;;;9.13;3.20;;;;;;;22.28;43.70;102539.97;5076342;28;20029;-55
2021/09/05 10:11:10;;;;;;;4.78;3.47;;;;;;;22.46;43.67;102544.75;5082365;28;20444;-56
2021/09/05 10:13:44;;;;;;;5.30;2.80;;;;;;;22.71;42.37;102535.50;5075131;28;20052;-55
2021/09/05 10:16:14;;;;;;;6.30;3.00;;;;;;;22.87;42.14;102539.78;5087748;28;20084;-56
2021/09/05 10:18:45;;;;;;;7.82;3.00;;;;;;;23.04;41.95;102536.59;5021504;28;20028;-56
2021/09/05 10:21:15;;;;;;;6.32;2.83;;;;;;;23.01;42.43;102531.72;5078947;28;20141;-56
2021/09/05 10:23:50;;;;;;;6.80;3.03;;;;;;;23.03;42.12;102539.63;5078272;28;20039;-56
2021/09/05 10:26:17;;;;;;;9.98;3.15;;;;;;;23.34;41.88;102526.41;5079743;28;20109;-54
2021/09/05 10:28:47;;;;;;;5.55;3.25;;;;;;;23.40;41.20;102541.69;5061926;28;20027;-54
2021/09/05 10:31:27;;;;;;;3.80;2.60;;;;;;;23.29;41.07;102529.22;5080394;28;20017;-53
2021/09/05 10:33:54;;;;;;;4.72;2.70;;;;;;;23.35;40.65;102522.59;5080121;28;20119;-54
2021/09/05 10:36:25;;;;;;;6.75;3.15;;;;;;;23.40;40.89;102526.09;5064695;28;20023;-56
2021/09/05 10:38:52;;;;;;;5.35;3.13;;;;;;;23.26;40.71;102521.59;5078322;28;20031;-55
2021/09/05 10:41:21;;;;;;;11.48;7.93;;;;;;;23.55;40.80;102522.34;5080726;28;20027;-53
2021/09/05 10:43:50;;;;;;;26.10;19.15;;;;;;;23.86;40.11;102528.25;5077265;28;20071;-57
2021/09/05 10:46:20;;;;;;;6.88;3.85;;;;;;;23.85;39.62;102514.88;5080598;28;20903;-55
2021/09/05 10:48:52;;;;;;;5.70;3.22;;;;;;;23.78;39.51;102520.72;5075348;28;20032;-56
2021/09/05 10:51:22;;;;;;;5.78;3.10;;;;;;;23.69;40.02;102517.00;5079979;28;20020;-54
2021/09/05 10:53:51;;;;;;;7.13;3.53;;;;;;;23.59;39.57;102520.69;5073226;28;20042;-56
2021/09/05 10:56:21;;;;;;;4.20;2.65;;;;;;;23.59;39.15;102528.91;5077101;28;20030;-57
2021/09/05 10:58:46;;;;;;;6.55;2.63;;;;;;;23.71;39.34;102515.63;5074213;28;20182;-56
2021/09/05 11:01:21;;;;;;;4.53;2.60;;;;;;;23.87;38.90;102518.13;5078351;28;20458;-56
2021/09/05 11:06:44;;;;;;;3.60;2.65;;;;;;;24.36;38.65;102510.28;5071938;28;20028;-56
2021/09/05 11:09:19;;;;;;;5.22;2.35;;;;;;;24.56;38.97;102502.84;5060758;28;20068;-56
2021/09/05 11:12:08;;;;;;;5.00;2.95;;;;;;;24.66;37.67;102499.94;5071227;28;20035;-54
2021/09/05 11:14:37;;;;;;;4.45;2.75;;;;;;;24.41;37.82;102504.72;5076033;28;20024;-56
2021/09/05 11:17:11;;;;;;;3.60;2.22;;;;;;;24.73;37.72;102491.31;5075301;28;20031;-56
2021/09/05 11:19:47;;;;;;;5.00;2.83;;;;;;;24.81;36.83;102487.88;5069949;28;20044;-56
2021/09/05 11:22:14;;;;;;;3.20;2.58;;;;;;;24.58;37.11;102506.09;5061561;28;20028;-56
2021/09/05 11:24:41;;;;;;;3.67;2.75;;;;;;;24.71;36.45;102494.34;5070956;28;20534;-54